Time;durP1;ratioP1;P1;durP2;ratioP2;P2;SDS_P1;SDS_P2;PMS_P1;PMS_P2;Temp;Humidity;BMP_temperature;BMP_pressure;BME280_temperature;BME280_humidity;BME280_pressure;Samples;Min_cycle;Max_cycle;Signal;HPM_P1;HPM_P2
2023/05/08 00:00:34;;;;;;;;;11.00;10.00;;;;;18.18;69.59;101591.44;2067378;28;45498;-63
2023/05/08 00:01:34;;;;;;;;;14.00;10.67;;;;;18.18;69.20;101591.44;2079513;28;46298;-63
2023/05/08 00:02:34;;;;;;;;;10.00;10.00;;;;;18.17;69.55;101590.56;2079902;28;46686;-63
2023/05/08 00:03:35;;;;;;;;;9.50;9.50;;;;;18.16;69.49;101588.78;2072182;28;46798;-65
2023/05/08 00:04:35;;;;;;;;;8.00;8.00;;;;;18.15;69.48;101587.03;2072436;28;45869;-63
2023/05/08 00:05:35;;;;;;;;;9.00;9.00;;;;;18.15;69.55;101586.16;2071706;28;46773;-62
2023/05/08 00:06:36;;;;;;;;;9.50;8.50;;;;;18.14;69.58;101590.66;2071752;28;46658;-64
2023/05/08 00:07:36;;;;;;;;;11.50;11.25;;;;;18.13;69.64;101591.59;2072223;28;46444;-62
2023/05/08 00:08:38;;;;;;;;;10.75;10.75;;;;;18.12;69.64;101588.97;2071836;28;46583;-64
2023/05/08 00:09:38;;;;;;;;;7.80;7.80;;;;;18.11;69.98;101582.72;2072443;28;46801;-64
2023/05/08 00:10:39;;;;;;;;;8.67;8.67;;;;;18.10;69.68;101591.72;2070458;28;47418;-62
2023/05/08 00:11:39;;;;;;;;;11.00;9.75;;;;;18.09;69.92;101586.41;2063135;28;45601;-64
2023/05/08 00:12:39;;;;;;;;;13.00;11.75;;;;;18.08;69.69;101584.69;2071616;28;46154;-63
2023/05/08 00:13:40;;;;;;;;;8.67;7.33;;;;;18.07;70.30;101588.28;2079575;28;46618;-63
2023/05/08 00:14:40;;;;;;;;;10.50;9.25;;;;;18.06;69.79;101584.75;2079567;28;46426;-64
2023/05/08 00:15:41;;;;;;;;;12.25;10.50;;;;;18.06;69.72;101590.09;2071775;28;46410;-64
2023/05/08 00:16:41;;;;;;;;;11.00;10.00;;;;;18.06;69.74;101583.88;2071130;28;46346;-64
2023/05/08 00:17:41;;;;;;;;;11.25;10.25;;;;;18.05;69.72;101598.22;2071931;28;46580;-63
2023/05/08 00:18:42;;;;;;;;;11.00;10.50;;;;;18.03;70.03;101589.31;2071764;28;46582;-65
2023/05/08 00:19:42;;;;;;;;;11.50;11.00;;;;;18.03;69.94;101592.88;2071660;28;46430;-63
2023/05/08 00:20:42;;;;;;;;;12.50;12.50;;;;;18.02;69.99;101596.50;2078192;28;46127;-63
2023/05/08 00:21:43;;;;;;;;;13.25;13.25;;;;;18.01;70.10;101594.75;2079493;28;46335;-64
2023/05/08 00:22:43;;;;;;;;;12.00;11.00;;;;;18.01;69.88;101599.25;2072227;28;45915;-65
2023/05/08 00:23:43;;;;;;;;;14.50;11.75;;;;;17.99;70.03;101596.63;2071910;28;46447;-63
2023/05/08 00:24:44;;;;;;;;;12.00;12.00;;;;;17.99;69.90;101595.75;2072365;28;46522;-62
2023/05/08 00:25:44;;;;;;;;;10.75;10.50;;;;;17.97;69.92;101595.81;2072030;28;46473;-62
2023/05/08 00:26:45;;;;;;;;;13.00;13.00;;;;;17.96;69.71;101588.72;2071825;28;46518;-63
2023/05/08 00:27:45;;;;;;;;;13.50;12.25;;;;;17.92;69.86;101596.00;2071574;28;46346;-65
2023/05/08 00:28:46;;;;;;;;;13.75;12.25;;;;;17.90;69.66;101592.47;2072138;28;46512;-65
2023/05/08 00:29:47;;;;;;;;;16.50;14.50;;;;;17.89;69.83;101590.72;2071609;28;46343;-63
2023/05/08 00:30:48;;;;;;;;;12.80;10.80;;;;;17.87;69.91;101591.72;2071587;28;47023;-63
2023/05/08 00:31:48;;;;;;;;;12.75;12.00;;;;;17.85;69.86;101591.78;2063169;28;46288;-65
2023/05/08 00:32:48;;;;;;;;;13.25;11.75;;;;;17.85;69.77;101596.28;2071436;28;46204;-62
2023/05/08 00:33:49;;;;;;;;;13.00;11.67;;;;;17.85;69.97;101596.28;2072232;28;46064;-63
2023/05/08 00:34:49;;;;;;;;;15.33;12.00;;;;;17.84;69.89;101595.41;2072539;28;45720;-64
2023/05/08 00:35:50;;;;;;;;;12.50;12.50;;;;;17.83;69.74;101590.97;2072239;28;45671;-63
2023/05/08 00:36:50;;;;;;;;;13.00;12.33;;;;;17.82;69.93;101589.22;2072640;28;45645;-66
2023/05/08 00:37:51;;;;;;;;;14.00;12.67;;;;;17.81;69.96;101592.84;2072418;28;46406;-64
2023/05/08 00:38:52;;;;;;;;;13.80;13.80;;;;;17.79;70.08;101593.84;2064232;28;46235;-65
2023/05/08 00:39:52;;;;;;;;;11.25;11.25;;;;;17.78;69.79;101586.69;2067215;28;46759;-64
2023/05/08 00:40:52;;;;;;;;;12.50;12.25;;;;;17.76;69.80;101586.75;2072104;28;46566;-63
2023/05/08 00:41:52;;;;;;;;;12.25;11.75;;;;;17.76;69.67;101589.44;2071191;28;47138;-62
2023/05/08 00:42:53;;;;;;;;;13.00;12.00;;;;;17.75;69.69;101579.66;2071775;28;46602;-64
2023/05/08 00:43:53;;;;;;;;;12.00;12.00;;;;;17.75;69.68;101578.78;2071848;28;46100;-64
2023/05/08 00:44:53;;;;;;;;;14.25;13.00;;;;;17.75;69.62;101578.78;2071862;28;46183;-62
2023/05/08 00:46:03;;;;;;;;;10.75;10.50;;;;;17.75;69.75;101581.47;2071894;28;46854;-64
2023/05/08 00:47:03;;;;;;;;;11.60;11.60;;;;;17.75;69.79;101582.34;2062089;28;46405;-64
2023/05/08 00:48:04;;;;;;;;;14.00;14.00;;;;;17.75;69.89;101581.47;2062518;28;46414;-63
2023/05/08 00:49:05;;;;;;;;;12.33;12.00;;;;;17.72;69.79;101576.22;2072013;28;46866;-63
2023/05/08 00:50:06;;;;;;;;;12.00;12.00;;;;;17.71;69.85;101583.38;2071983;28;46520;-65
2023/05/08 00:51:08;;;;;;;;;13.60;12.80;;;;;17.70;69.92;101576.28;2062390;28;46525;-63
2023/05/08 00:52:09;;;;;;;;;14.00;12.20;;;;;17.70;70.06;101580.78;2062651;28;46499;-64
2023/05/08 00:53:10;;;;;;;;;9.40;8.00;;;;;17.69;69.84;101579.03;2071671;28;46351;-63
2023/05/08 00:54:11;;;;;;;;;11.00;11.00;;;;;17.69;70.04;101576.34;2079364;28;46827;-63
2023/05/08 00:55:12;;;;;;;;;12.00;11.00;;;;;17.69;69.86;101576.34;2079742;28;46323;-63
2023/05/08 00:56:14;;;;;;;;;10.75;10.00;;;;;17.69;70.04;101577.22;2071595;28;46511;-63
2023/05/08 00:57:15;;;;;;;;;7.80;6.20;;;;;17.71;70.22;101578.03;2071572;28;47055;-63
2023/05/08 00:58:16;;;;;;;;;13.60;12.80;;;;;17.71;69.95;101574.47;2071686;28;45700;-63
2023/05/08 00:59:19;;;;;;;;;12.50;12.50;;;;;17.71;69.80;101572.66;2072012;28;46157;-63
2023/05/08 01:00:20;;;;;;;;;10.60;10.00;;;;;17.72;70.10;101574.41;2072326;28;45160;-63
2023/05/08 01:01:21;;;;;;;;;15.80;12.40;;;;;17.73;70.00;101575.28;2071496;28;46673;-63
2023/05/08 01:02:21;;;;;;;;;11.60;11.60;;;;;17.73;70.14;101576.16;2071698;28;47026;-62
2023/05/08 01:03:23;;;;;;;;;10.25;10.25;;;;;17.72;69.88;101568.16;2071841;28;46164;-62
2023/05/08 01:04:26;;;;;;;;;11.80;10.60;;;;;17.72;69.57;101576.22;2071655;28;46566;-63
2023/05/08 01:05:27;;;;;;;;;10.80;10.80;;;;;17.70;69.79;101570.03;2071778;28;46511;-63
2023/05/08 01:06:27;;;;;;;;;11.00;10.00;;;;;17.69;69.87;101568.28;2071736;28;47020;-63
2023/05/08 01:07:28;;;;;;;;;15.25;12.00;;;;;17.68;69.67;101572.75;2071798;28;46529;-63
2023/05/08 01:08:30;;;;;;;;;10.00;9.00;;;;;17.68;69.71;101561.13;2071624;28;46336;-63
2023/05/08 01:09:30;;;;;;;;;9.00;9.00;;;;;17.68;69.66;101566.50;2072291;28;46486;-64
2023/05/08 01:10:41;;;;;;;;;10.75;9.50;;;;;17.68;69.75;101567.38;2071829;28;46140;-63
2023/05/08 01:11:51;;;;;;;;;11.00;10.80;;;;;17.68;69.66;101569.19;2071495;28;46377;-64
2023/05/08 01:13:07;;;;;;;;;9.40;8.80;;;;;17.66;69.57;101574.63;2071258;28;45654;-62
2023/05/08 01:14:20;;;;;;;;;11.20;11.20;;;;;17.63;69.52;101572.03;2070947;28;46685;-63
2023/05/08 01:15:28;;;;;;;;;9.60;9.60;;;;;17.61;69.59;101566.72;2074073;28;46728;-62
2023/05/08 01:16:34;;;;;;;;;12.00;11.00;;;;;17.59;69.51;101573.06;2078559;28;46467;-61
2023/05/08 01:17:53;;;;;;;;;8.80;8.80;;;;;17.56;69.89;101573.19;2071453;28;46632;-64
2023/05/08 01:19:41;;;;;;;;;12.20;11.60;;;;;17.52;69.35;101577.78;2071997;28;46285;-62
2023/05/08 01:20:45;;;;;;;;;12.40;12.40;;;;;17.51;69.55;101569.78;2062828;28;46925;-63
2023/05/08 01:21:55;;;;;;;;;11.00;11.00;;;;;17.49;69.60;101574.34;2062623;28;46766;-62
2023/05/08 01:23:35;;;;;;;;;9.40;9.40;;;;;17.46;69.60;101575.34;2062691;28;46636;-64
2023/05/08 01:24:51;;;;;;;;;10.80;10.80;;;;;17.46;69.43;101579.84;2046708;28;46864;-63
2023/05/08 01:26:00;;;;;;;;;13.25;10.75;;;;;17.44;69.76;101581.69;2046703;28;46420;-64
2023/05/08 01:27:24;;;;;;;;;12.20;11.40;;;;;17.42;69.72;101587.13;2046310;28;46348;-63
2023/05/08 01:28:47;;;;;;;;;9.20;9.20;;;;;17.42;69.18;101581.75;2046625;28;47087;-63
2023/05/08 01:30:26;;;;;;;;;10.00;10.00;;;;;17.42;69.55;101583.56;2046492;28;46639;-64
2023/05/08 01:31:41;;;;;;;;;11.00;11.00;;;;;17.41;69.83;101580.00;2046001;28;46814;-63
2023/05/08 01:32:49;;;;;;;;;12.20;11.60;;;;;17.43;69.55;101590.69;2046903;28;46084;-62
2023/05/08 01:34:01;;;;;;;;;13.20;11.60;;;;;17.38;69.59;101582.78;2046248;28;46690;-63
2023/05/08 01:35:26;;;;;;;;;11.60;11.00;;;;;17.36;69.64;101585.53;2046516;28;46742;-64
2023/05/08 01:36:44;;;;;;;;;12.00;10.20;;;;;17.34;69.65;101582.03;2045924;28;46237;-62
2023/05/08 01:37:58;;;;;;;;;12.00;12.00;;;;;17.31;69.56;101583.94;2038478;28;46857;-63
2023/05/08 01:39:07;;;;;;;;;10.80;10.80;;;;;17.29;69.68;101591.19;2039956;28;46279;-63
2023/05/08 01:40:16;;;;;;;;;12.20;12.20;;;;;17.27;69.48;101588.53;2046281;28;46980;-63
2023/05/08 01:41:24;;;;;;;;;12.40;10.40;;;;;17.25;69.68;101586.84;2046681;28;46156;-63
2023/05/08 01:42:27;;;;;;;;;11.80;10.60;;;;;17.22;69.68;101593.19;2046271;28;46417;-63
2023/05/08 01:43:59;;;;;;;;;10.40;10.40;;;;;17.20;70.17;101589.69;2046268;28;46598;-63
2023/05/08 01:45:05;;;;;;;;;14.40;12.40;;;;;17.18;69.98;101586.19;2046283;28;46529;-63
2023/05/08 01:46:15;;;;;;;;;14.60;13.40;;;;;17.17;70.01;101579.06;2046409;28;47214;-63
2023/05/08 01:47:19;;;;;;;;;11.20;10.80;;;;;17.16;69.88;101580.00;2047096;28;45679;-63
2023/05/08 01:48:23;;;;;;;;;11.60;11.40;;;;;17.16;70.08;101580.00;2046307;28;46991;-61
2023/05/08 01:49:33;;;;;;;;;12.80;12.80;;;;;17.14;70.24;101579.16;2046941;28;46119;-62
2023/05/08 01:50:39;;;;;;;;;8.40;8.40;;;;;17.13;70.51;101577.41;2046514;28;47062;-63
2023/05/08 01:51:46;;;;;;;;;11.00;9.80;;;;;17.13;70.43;101585.44;2046227;28;46458;-63
2023/05/08 01:52:56;;;;;;;;;12.00;10.60;;;;;17.11;70.20;101586.44;2046298;28;46554;-62
2023/05/08 01:54:03;;;;;;;;;10.20;9.60;;;;;17.09;70.13;101586.50;2046330;28;46726;-63
2023/05/08 01:55:10;;;;;;;;;11.60;9.60;;;;;17.07;70.32;101588.38;2046595;28;46476;-63
2023/05/08 01:56:18;;;;;;;;;10.75;10.25;;;;;17.05;70.55;101584.88;2046503;28;46599;-63
2023/05/08 01:57:19;;;;;;;;;11.40;10.20;;;;;17.03;70.43;101584.06;2046368;28;46486;-62
2023/05/08 01:58:22;;;;;;;;;12.20;10.80;;;;;17.02;70.24;101584.94;2046599;28;46357;-63
2023/05/08 01:59:25;;;;;;;;;8.00;8.00;;;;;17.01;70.25;101585.88;2046418;28;46733;-62
2023/05/08 02:00:28;;;;;;;;;11.25;9.25;;;;;17.01;70.26;101580.50;2046791;28;47080;-62
2023/05/08 02:01:32;;;;;;;;;12.50;11.75;;;;;17.01;70.41;101585.88;2046176;28;46935;-64
2023/05/08 02:02:34;;;;;;;;;9.40;9.40;;;;;17.01;70.24;101591.25;2061094;28;46573;-62
2023/05/08 02:03:37;;;;;;;;;11.60;11.00;;;;;17.00;70.17;101585.00;2071505;28;45602;-62
2023/05/08 02:04:42;;;;;;;;;8.25;8.00;;;;;17.01;70.47;101585.88;2071843;28;46668;-65
2023/05/08 02:05:44;;;;;;;;;12.50;12.50;;;;;17.02;70.68;101587.63;2071741;28;46484;-63
2023/05/08 02:06:45;;;;;;;;;10.60;10.60;;;;;17.02;70.47;101593.91;2071409;28;46585;-63
2023/05/08 02:07:47;;;;;;;;;10.75;9.50;;;;;17.02;69.98;101587.63;2072304;28;45859;-63
2023/05/08 02:08:50;;;;;;;;;13.40;12.20;;;;;17.01;70.27;101584.06;2072255;28;46752;-64
2023/05/08 02:09:52;;;;;;;;;8.75;8.75;;;;;17.02;70.12;101591.22;2073009;28;46846;-62
2023/05/08 02:10:54;;;;;;;;;10.60;10.40;;;;;17.02;69.89;101596.59;2073083;28;46481;-63
2023/05/08 02:11:55;;;;;;;;;10.60;10.60;;;;;17.01;70.24;101591.25;2072528;28;46856;-63
2023/05/08 02:12:59;;;;;;;;;10.40;10.40;;;;;17.01;70.28;101591.25;2072941;28;47284;-63
2023/05/08 02:14:02;;;;;;;;;8.80;8.80;;;;;17.01;70.29;101589.44;2072810;28;46612;-63
2023/05/08 02:15:05;;;;;;;;;8.60;8.60;;;;;17.02;70.46;101588.53;2073015;28;46764;-64
2023/05/08 02:16:08;;;;;;;;;10.00;10.00;;;;;17.03;70.41;101597.47;2073066;28;46534;-63
2023/05/08 02:17:10;;;;;;;;;11.60;11.60;;;;;17.04;70.62;101596.53;2072670;28;46326;-63
2023/05/08 02:18:11;;;;;;;;;10.00;9.40;;;;;17.05;70.53;101592.91;2072646;28;46830;-63
2023/05/08 02:19:15;;;;;;;;;8.60;8.60;;;;;17.07;70.43;101599.09;2072953;28;46676;-63
2023/05/08 02:20:15;;;;;;;;;10.00;10.00;;;;;17.08;70.15;101597.28;2073039;28;45662;-63
2023/05/08 02:21:17;;;;;;;;;12.50;11.25;;;;;17.09;70.16;101601.72;2073399;28;46153;-63
2023/05/08 02:22:20;;;;;;;;;8.20;8.20;;;;;17.09;69.98;101594.56;2072107;28;46351;-63
2023/05/08 02:23:24;;;;;;;;;13.00;12.20;;;;;17.08;69.66;101598.16;2071670;28;46252;-63
2023/05/08 02:24:25;;;;;;;;;12.60;11.60;;;;;17.09;69.73;101604.41;2072759;28;46930;-63
2023/05/08 02:25:27;;;;;;;;;12.00;10.33;;;;;17.08;69.99;101600.84;2073001;28;46465;-63
2023/05/08 02:26:30;;;;;;;;;15.00;13.75;;;;;17.08;69.83;101600.84;2073105;28;45752;-63
2023/05/08 02:27:31;;;;;;;;;10.25;10.25;;;;;17.09;69.95;101599.03;2072601;28;46221;-63
2023/05/08 02:28:32;;;;;;;;;14.33;12.33;;;;;17.08;69.49;101602.66;2072705;28;46246;-63
2023/05/08 02:29:33;;;;;;;;;16.50;12.00;;;;;17.06;69.85;101598.22;2073193;28;46366;-63
2023/05/08 02:30:34;;;;;;;;;14.50;14.25;;;;;17.06;69.76;101606.25;2072909;28;46615;-64
2023/05/08 02:31:36;;;;;;;;;15.60;13.40;;;;;17.06;69.80;101602.72;2072322;28;46423;-62
2023/05/08 02:32:38;;;;;;;;;13.50;13.00;;;;;17.04;69.44;101602.75;2065001;28;46651;-64
2023/05/08 02:33:41;;;;;;;;;14.25;12.25;;;;;17.04;69.62;101601.88;2067077;28;46575;-63
2023/05/08 02:34:42;;;;;;;;;15.00;12.80;;;;;17.03;69.56;101597.47;2072832;28;46634;-61
2023/05/08 02:35:45;;;;;;;;;15.25;13.50;;;;;17.03;69.46;101592.09;2072385;28;46791;-62
2023/05/08 02:36:47;;;;;;;;;17.20;15.00;;;;;17.03;69.65;101595.66;2072260;28;46207;-63
2023/05/08 02:37:52;;;;;;;;;15.20;14.80;;;;;17.03;69.45;101601.00;2072470;28;46633;-63
2023/05/08 02:38:57;;;;;;;;;15.75;14.75;;;;;17.04;69.49;101596.53;2072951;28;48480;-61
2023/05/08 02:39:57;;;;;;;;;15.25;13.50;;;;;17.05;69.94;101595.59;2072533;28;46320;-64
2023/05/08 02:41:04;;;;;;;;;14.33;14.33;;;;;17.06;69.76;101597.34;2072689;28;46227;-61
2023/05/08 02:42:04;;;;;;;;;17.00;17.00;;;;;17.08;69.86;101597.28;2072434;28;46651;-62
2023/05/08 02:43:06;;;;;;;;;16.50;13.00;;;;;17.08;69.87;101598.16;2073606;28;45933;-62
2023/05/08 02:44:07;;;;;;;;;20.40;17.20;;;;;17.10;69.56;101601.66;2072419;28;46828;-62
2023/05/08 02:45:09;;;;;;;;;17.60;16.80;;;;;17.11;69.47;101605.22;2072851;28;46599;-61
2023/05/08 02:46:23;;;;;;;;;22.80;21.60;;;;;17.11;69.42;101599.84;2072620;28;46434;-63
2023/05/08 02:47:38;;;;;;;;;21.60;18.60;;;;;17.12;69.45;101598.91;2072485;28;46628;-63
2023/05/08 02:48:56;;;;;;;;;16.00;16.00;;;;;17.11;69.35;101592.69;2072803;28;46352;-62
2023/05/08 02:50:12;;;;;;;;;16.80;16.40;;;;;17.12;69.39;101597.13;2072198;28;46692;-63
2023/05/08 02:51:42;;;;;;;;;23.00;20.40;;;;;17.11;69.42;101594.50;2071904;28;46407;-63
2023/05/08 02:52:53;;;;;;;;;19.80;19.40;;;;;17.10;69.50;101598.97;2072534;28;46857;-63
2023/05/08 02:54:05;;;;;;;;;20.60;17.60;;;;;17.10;69.63;101601.66;2072728;28;46573;-61
2023/05/08 02:55:27;;;;;;;;;21.40;18.60;;;;;17.11;69.41;101598.03;2072249;28;46968;-64
2023/05/08 02:56:43;;;;;;;;;21.60;21.60;;;;;17.11;69.47;101595.38;2072284;28;46327;-63
2023/05/08 02:57:47;;;;;;;;;18.20;18.00;;;;;17.11;69.59;101595.38;2072102;28;46579;-60
2023/05/08 02:58:55;;;;;;;;;21.80;20.60;;;;;17.14;69.21;101594.38;2072498;28;46351;-63
2023/05/08 03:00:00;;;;;;;;;15.80;14.80;;;;;17.14;69.26;101592.56;2073371;28;46548;-62
2023/05/08 03:01:06;;;;;;;;;16.60;16.40;;;;;17.15;69.55;101590.75;2080802;28;46544;-63
2023/05/08 03:02:21;;;;;;;;;18.00;17.80;;;;;17.15;69.18;101601.50;2078923;28;46630;-64
2023/05/08 03:03:31;;;;;;;;;16.80;16.80;;;;;17.14;69.34;101599.75;2068545;28;46605;-64
2023/05/08 03:04:36;;;;;;;;;18.00;17.40;;;;;17.12;69.16;101588.19;2072719;28;46786;-63
2023/05/08 03:05:38;;;;;;;;;18.80;18.80;;;;;17.12;69.22;101601.59;2072698;28;46389;-62
2023/05/08 03:06:46;;;;;;;;;22.60;18.60;;;;;17.10;69.25;101595.44;2072397;28;46361;-63
2023/05/08 03:07:51;;;;;;;;;19.20;18.20;;;;;17.08;68.88;101594.59;2072603;28;46488;-63
2023/05/08 03:08:56;;;;;;;;;25.20;24.40;;;;;17.07;69.18;101593.72;2072506;28;47139;-63
2023/05/08 03:10:06;;;;;;;;;18.40;18.00;;;;;17.04;69.00;101592.03;2072473;28;46501;-63
2023/05/08 03:11:11;;;;;;;;;18.40;17.20;;;;;17.02;69.23;101596.59;2072568;28;46371;-63
2023/05/08 03:12:20;;;;;;;;;21.80;21.80;;;;;17.00;68.63;101597.53;2071734;28;46964;-64
2023/05/08 03:13:22;;;;;;;;;20.00;18.60;;;;;16.97;68.77;101595.84;2073153;28;47853;-64
2023/05/08 03:14:25;;;;;;;;;19.20;18.20;;;;;16.95;68.74;101594.16;2079876;28;47120;-64
2023/05/08 03:15:42;;;;;;;;;16.80;16.40;;;;;16.91;68.79;101598.75;2072154;28;46121;-63
2023/05/08 03:16:44;;;;;;;;;19.00;16.00;;;;;16.88;68.86;101588.09;2064146;28;47195;-64
2023/05/08 03:17:48;;;;;;;;;17.40;16.20;;;;;16.87;69.28;101597.06;2067472;28;46580;-62
2023/05/08 03:19:06;;;;;;;;;27.00;24.60;;;;;16.86;68.81;101589.09;2072237;28;46497;-62
2023/05/08 03:20:11;;;;;;;;;24.60;21.00;;;;;16.85;69.08;101588.22;2072140;28;46795;-61
2023/05/08 03:21:13;;;;;;;;;21.20;20.20;;;;;16.84;68.88;101589.16;2072502;28;46414;-62
2023/05/08 03:22:18;;;;;;;;;21.80;20.60;;;;;16.83;69.36;101595.44;2072413;28;46699;-62
2023/05/08 03:23:20;;;;;;;;;21.60;20.80;;;;;16.83;69.32;101595.44;2072332;28;46427;-63
2023/05/08 03:24:22;;;;;;;;;21.40;21.40;;;;;16.85;69.20;101592.69;2072374;28;46610;-63
2023/05/08 03:25:26;;;;;;;;;21.60;21.20;;;;;16.83;69.18;101586.53;2072309;28;46104;-63
2023/05/08 03:26:27;;;;;;;;;19.00;17.80;;;;;16.84;69.19;101593.63;2072550;28;46600;-62
2023/05/08 03:27:29;;;;;;;;;20.40;20.40;;;;;16.82;69.30;101590.13;2072402;28;46471;-63
2023/05/08 03:28:31;;;;;;;;;21.20;20.00;;;;;16.80;69.36;101590.19;2071991;28;46664;-62
2023/05/08 03:29:33;;;;;;;;;16.00;15.60;;;;;16.79;69.27;101593.81;2072693;28;46284;-63
2023/05/08 03:30:38;;;;;;;;;17.00;17.00;;;;;16.76;69.41;101578.66;2072285;28;46410;-63
2023/05/08 03:31:41;;;;;;;;;18.80;17.80;;;;;16.79;69.03;101579.53;2072277;28;46733;-64
2023/05/08 03:32:45;;;;;;;;;22.80;19.80;;;;;16.77;69.31;101583.13;2072441;28;46651;-62
2023/05/08 03:33:47;;;;;;;;;20.40;19.20;;;;;16.79;69.09;101579.53;2072356;28;46980;-62
2023/05/08 03:34:49;;;;;;;;;18.40;17.60;;;;;16.79;69.26;101580.41;2071871;28;47060;-63
2023/05/08 03:35:50;;;;;;;;;22.00;19.80;;;;;16.79;69.41;101577.72;2072606;28;46125;-62
2023/05/08 03:36:51;;;;;;;;;16.50;13.25;;;;;16.79;69.20;101584.88;2072355;28;46292;-62
2023/05/08 03:37:52;;;;;;;;;19.75;19.75;;;;;16.77;69.37;101579.56;2062949;28;46643;-63
2023/05/08 03:38:53;;;;;;;;;17.40;17.40;;;;;16.76;69.21;101585.84;2063060;28;46376;-61
2023/05/08 03:39:54;;;;;;;;;25.00;17.50;;;;;16.77;69.57;101590.31;2072571;28;45803;-62
2023/05/08 03:40:55;;;;;;;;;17.20;16.40;;;;;16.78;69.37;101589.38;2072177;28;47040;-62
2023/05/08 03:41:55;;;;;;;;;19.75;17.00;;;;;16.78;69.57;101584.00;2072078;28;46659;-63
2023/05/08 03:42:59;;;;;;;;;17.75;17.50;;;;;16.77;69.29;101593.84;2072371;28;46589;-63
2023/05/08 03:44:02;;;;;;;;;23.40;20.00;;;;;16.74;69.04;101601.97;2072845;28;46525;-63
2023/05/08 03:45:03;;;;;;;;;18.20;17.80;;;;;16.71;69.36;101598.53;2072186;28;46552;-63
2023/05/08 03:46:05;;;;;;;;;18.40;18.20;;;;;16.69;69.41;101600.38;2071101;28;46008;-63
2023/05/08 03:47:07;;;;;;;;;17.20;17.20;;;;;16.67;68.91;101596.84;2070631;28;46627;-63
2023/05/08 03:48:08;;;;;;;;;20.00;18.80;;;;;16.66;69.32;101600.47;2079875;28;47228;-64
2023/05/08 03:49:08;;;;;;;;;18.20;16.80;;;;;16.62;69.02;101602.34;2080090;28;46458;-66
2023/05/08 03:50:09;;;;;;;;;18.50;17.50;;;;;16.59;69.30;101599.78;2071993;28;46067;-63
2023/05/08 03:51:10;;;;;;;;;13.00;13.00;;;;;16.54;69.06;101601.72;2072335;28;46327;-64
2023/05/08 03:52:12;;;;;;;;;16.25;14.50;;;;;16.50;69.28;101608.09;2064407;28;46323;-64
2023/05/08 03:53:13;;;;;;;;;19.40;19.40;;;;;16.46;68.90;101610.00;2067264;28;45540;-63
2023/05/08 03:54:13;;;;;;;;;16.20;15.20;;;;;16.42;68.97;101604.81;2072229;28;46630;-63
2023/05/08 03:55:14;;;;;;;;;16.50;16.50;;;;;16.40;69.43;101607.53;2072798;28;46663;-63
2023/05/08 03:56:14;;;;;;;;;18.50;15.75;;;;;16.38;69.25;101605.81;2072521;28;46718;-63
2023/05/08 03:57:15;;;;;;;;;15.00;13.33;;;;;16.36;69.32;101602.31;2072783;28;46391;-63
2023/05/08 03:58:18;;;;;;;;;21.75;20.25;;;;;16.34;69.10;101601.47;2073104;28;46427;-62
2023/05/08 03:59:40;;;;;;;;;16.60;16.60;;;;;16.33;69.10;101610.44;2073063;28;46422;-63
2023/05/08 04:00:59;;;;;;;;;17.40;16.80;;;;;16.29;69.13;101600.75;2073193;28;46600;-64
2023/05/08 04:02:12;;;;;;;;;20.40;18.60;;;;;16.27;68.92;101602.63;2076792;28;46612;-61
2023/05/08 04:03:23;;;;;;;;;19.80;16.40;;;;;16.25;69.33;101602.63;2074054;28;46523;-63
2023/05/08 04:04:37;;;;;;;;;17.60;17.60;;;;;16.25;69.37;101599.09;2072863;28;45048;-61
2023/05/08 04:05:49;;;;;;;;;19.20;18.40;;;;;16.23;69.48;101604.50;2073227;28;46862;-62
2023/05/08 04:06:58;;;;;;;;;21.80;21.20;;;;;16.21;68.90;101606.34;2064228;28;47150;-63
2023/05/08 04:08:04;;;;;;;;;22.20;21.40;;;;;16.18;69.63;101609.13;2068745;28;46267;-62
2023/05/08 04:09:33;;;;;;;;;20.40;19.00;;;;;16.16;69.77;101598.47;2072655;28;46822;-62
2023/05/08 04:10:42;;;;;;;;;23.40;21.40;;;;;16.17;69.26;101605.56;2072827;28;46456;-63
2023/05/08 04:11:59;;;;;;;;;20.40;20.40;;;;;16.17;69.46;101599.34;2080406;28;46263;-69
2023/05/08 04:13:21;;;;;;;;;22.60;21.00;;;;;16.15;69.52;101602.06;2078054;28;46301;-63
2023/05/08 04:14:26;;;;;;;;;18.40;17.80;;;;;16.16;69.50;101600.25;2071689;28;46869;-62
2023/05/08 04:15:30;;;;;;;;;20.80;18.80;;;;;16.18;69.64;101593.06;2080330;28;46627;-62
2023/05/08 04:16:37;;;;;;;;;20.40;20.40;;;;;16.20;69.24;101596.56;2078939;28;45911;-62
2023/05/08 04:17:40;;;;;;;;;15.20;13.80;;;;;16.22;69.66;101594.69;2066868;28;46667;-63
2023/05/08 04:18:45;;;;;;;;;23.60;22.20;;;;;16.25;69.42;101597.28;2072219;28;46278;-65
2023/05/08 04:19:50;;;;;;;;;19.40;18.40;;;;;16.26;69.37;101595.47;2072182;28;46460;-63
2023/05/08 04:20:54;;;;;;;;;21.00;20.00;;;;;16.26;69.48;101587.44;2072026;28;46499;-63
2023/05/08 04:21:58;;;;;;;;;18.40;17.20;;;;;16.27;69.52;101587.41;2072241;28;45513;-63
2023/05/08 04:22:59;;;;;;;;;16.20;16.20;;;;;16.26;69.31;101591.03;2072172;28;46405;-63
2023/05/08 04:24:03;;;;;;;;;14.00;13.80;;;;;16.27;69.05;101589.22;2071217;28;46570;-63
2023/05/08 04:25:06;;;;;;;;;15.60;15.40;;;;;16.26;69.32;101592.78;2072172;28;46281;-64
2023/05/08 04:26:09;;;;;;;;;20.60;15.60;;;;;16.27;69.07;101597.25;2072177;28;45761;-63
2023/05/08 04:27:11;;;;;;;;;21.00;16.40;;;;;16.27;69.15;101589.22;2071841;28;46339;-62
2023/05/08 04:28:12;;;;;;;;;20.20;16.80;;;;;16.25;69.07;101586.56;2071970;28;46739;-62
2023/05/08 04:29:13;;;;;;;;;19.50;17.00;;;;;16.26;69.04;101598.16;2071778;28;46630;-63
2023/05/08 04:30:13;;;;;;;;;19.60;19.60;;;;;16.27;69.14;101599.94;2071775;28;45838;-64
2023/05/08 04:31:18;;;;;;;;;16.40;15.40;;;;;16.27;69.27;101598.13;2071535;28;46344;-63
2023/05/08 04:32:20;;;;;;;;;15.80;14.60;;;;;16.30;69.25;101590.00;2064511;28;46170;-63
2023/05/08 04:33:20;;;;;;;;;17.60;16.80;;;;;16.32;69.32;101593.50;2067678;28;46931;-64
2023/05/08 04:34:21;;;;;;;;;20.50;19.25;;;;;16.33;69.27;101595.25;2072161;28;46558;-62
2023/05/08 04:35:22;;;;;;;;;19.75;18.75;;;;;16.35;69.02;101595.19;2071805;28;46653;-63
2023/05/08 04:36:24;;;;;;;;;24.00;23.00;;;;;16.35;69.33;101592.50;2072143;28;46516;-63
2023/05/08 04:37:25;;;;;;;;;20.80;19.80;;;;;16.35;69.16;101597.88;2072016;28;46361;-63
2023/05/08 04:38:26;;;;;;;;;20.00;20.00;;;;;16.37;69.17;101601.38;2071842;28;46655;-63
2023/05/08 04:39:26;;;;;;;;;21.00;18.75;;;;;16.37;69.24;101601.38;2071601;28;46199;-63
2023/05/08 04:40:27;;;;;;;;;20.00;19.75;;;;;16.37;69.07;101594.22;2072146;28;46859;-62
2023/05/08 04:41:27;;;;;;;;;16.75;15.00;;;;;16.38;69.08;101600.44;2072054;28;46348;-63
2023/05/08 04:42:27;;;;;;;;;20.25;18.00;;;;;16.38;69.07;101597.78;2072035;28;45010;-63
2023/05/08 04:43:28;;;;;;;;;14.25;14.00;;;;;16.37;69.21;101607.59;2071775;28;46256;-64
2023/05/08 04:44:28;;;;;;;;;18.75;17.75;;;;;16.38;69.27;101601.31;2071914;28;46700;-63
2023/05/08 04:45:29;;;;;;;;;19.25;16.25;;;;;16.38;69.07;101611.16;2072055;28;46559;-62
2023/05/08 04:46:29;;;;;;;;;18.00;17.00;;;;;16.38;68.81;101601.31;2071957;28;46184;-64
2023/05/08 04:47:29;;;;;;;;;18.00;18.00;;;;;16.37;69.21;101598.69;2072100;28;47002;-64
2023/05/08 04:48:32;;;;;;;;;18.25;16.50;;;;;16.39;69.09;101602.22;2071696;28;46573;-64
2023/05/08 04:49:32;;;;;;;;;15.20;15.20;;;;;16.40;68.81;101603.97;2071697;28;47225;-63
2023/05/08 04:50:35;;;;;;;;;14.75;13.50;;;;;16.41;68.93;101601.25;2071982;28;46659;-64
2023/05/08 04:51:36;;;;;;;;;16.00;16.00;;;;;16.43;68.86;101606.56;2071565;28;46532;-63
2023/05/08 04:52:36;;;;;;;;;17.00;14.50;;;;;16.43;68.66;101611.91;2072364;28;46855;-65
2023/05/08 04:53:36;;;;;;;;;20.75;18.00;;;;;16.42;68.87;101604.81;2071776;28;47105;-62
2023/05/08 04:54:37;;;;;;;;;18.75;18.75;;;;;16.41;69.01;101603.94;2071912;28;46644;-64
2023/05/08 04:55:37;;;;;;;;;13.75;13.75;;;;;16.42;68.80;101603.00;2071941;28;46335;-63